Terminal Aerodrome Forecast
Issued by NWS

Home | Current Version | Previous Version | Text Only | Print | Product List | Glossary On
Versions: 1 2 3 4 5 6 7 8 9 10 11 12 13 14 15 16 17 18 19 20 21 22 23 24
000
FTUS42 KJAX 230500
TAFCRG
TAF
KCRG 230529Z 2306/2406 VRB03KT P6SM VCSH SCT020 SCT250
     FM231400 26004KT P6SM SCT025
     FM231700 14008KT P6SM SCT035 BKN150 PROB30 2320/2322 4SM TSRA
      BKN035CB
     FM240200 20004KT P6SM SCT250=

USA.gov is the U.S. government's official web portal to all federal, state and local government web resources and services.